Aérodrome :
LOGIN :

S'inscrire | Disclaimer

   EN    FR    IT 

 










Légende :    VFR   VFR Marginal   IFR   IFR Intensif   IFR Très Intensif
Visi : 
Plafond : 
>= 8 km
>= 3000ft
5 à 8 km
1000 à 3000 ft
1500m à 5 km
500 à 1000 ft
800 à 1500m
200 à 500 ft
< 800m
< 200 ft
Symboles :   Orages  Brouillard  Fortes neiges  Fortes précipitations  Vent > 20 kt
SIGMETs :   Divers  Orages  Givrage  Turbulence  Onde Orograph.  Cendres Volcan.







- Altitude de l'aérodrome : 141 ft
- Code IATA : SKS


EKSP - Srydstrup Vojens

DERNIER METAR :
  • 190820Z 26018KT 9999 SCT018 BKN200 17/13 Q1017 NOSIG

METARs EXPIRÉS :
  • 190750Z 25015KT 230V290 9999 FEW023 BKN038 16/13 Q1016 NOSIG
  • 190720Z 27016KT 9999 FEW015 SCT023 BKN042 16/13 Q1016 NOSIG
  • 190650Z 27013KT 240V300 9999 FEW011 SCT014 BKN042 17/14 Q1016 NOSIG
  • 190620Z 24010KT 210V270 9999 SCT011 BKN038 16/14 Q1015 NOSIG
  • 190550Z 24010KT 220V280 9999 SCT011 BKN038 16/14 Q1015 NOSIG

TAF TAF EKSP
Valide du 19 à 09h jusqu'au 20 à 06h UTC


190802Z 1909/2006 25015KT 9999 SCT030
TEMPO 1909/1917 27012G28KT
Pas de NOTAMs connus pour ce terrain.



MET'MAP, la Météo Aéronautique d'un coup d'oeil ! - Copyright ORBIFLY Décembre 2007 - Disclaimer

ORBIFLY MET'MAP TEAM :

Programmation & Développement : Alexandra Zaïnal
Conception & Développement : Baudouin d'Aumeries
Co-Programmation & Développement : Marc-Olivier Méhu
Soutien technique & logistique : Manuel Goepfert

Contact : metmap@orbifly.com




SOURCES & CREDITS :

   NOAA